sensor_id;sensor_type;location;lat;lon;timestamp;noise_LAeq;noise_LA_min;noise_LA_max;noise_LA01;noise_LA95
71026;Laerm;62048;52.312;4.858;2022-08-21T00:00:09;45.95;40.49;52.53;;
71026;Laerm;62048;52.312;4.858;2022-08-21T00:00:21;43.07;39.91;47.81;;
71026;Laerm;62048;52.312;4.858;2022-08-21T00:00:32;43.28;40.00;47.29;;
71026;Laerm;62048;52.312;4.858;2022-08-21T00:00:43;44.02;40.85;48.98;;
71026;Laerm;62048;52.312;4.858;2022-08-21T00:00:53;43.47;39.64;50.03;;
71026;Laerm;62048;52.312;4.858;2022-08-21T00:01:05;44.65;41.28;50.64;;
71026;Laerm;62048;52.312;4.858;2022-08-21T00:01:18;43.07;39.64;47.26;;
71026;Laerm;62048;52.312;4.858;2022-08-21T00:01:29;43.01;38.65;48.95;;
71026;Laerm;62048;52.312;4.858;2022-08-21T00:01:40;45.67;39.89;52.19;;
71026;Laerm;62048;52.312;4.858;2022-08-21T00:01:50;43.49;39.97;46.73;;
71026;Laerm;62048;52.312;4.858;2022-08-21T00:02:00;43.90;40.82;48.88;;
71026;Laerm;62048;52.312;4.858;2022-08-21T00:02:18;44.05;39.55;47.31;;
71026;Laerm;62048;52.312;4.858;2022-08-21T00:02:28;44.45;41.10;47.62;;
71026;Laerm;62048;52.312;4.858;2022-08-21T00:02:44;46.57;42.51;50.83;;
71026;Laerm;62048;52.312;4.858;2022-08-21T00:02:56;45.70;42.46;49.27;;
71026;Laerm;62048;52.312;4.858;2022-08-21T00:03:08;45.65;42.70;49.27;;
71026;Laerm;62048;52.312;4.858;2022-08-21T00:03:18;44.92;41.04;49.52;;
71026;Laerm;62048;52.312;4.858;2022-08-21T00:03:29;42.60;40.00;46.12;;
71026;Laerm;62048;52.312;4.858;2022-08-21T00:03:39;41.88;39.15;45.33;;
71026;Laerm;62048;52.312;4.858;2022-08-21T00:03:50;42.20;39.35;45.61;;
71026;Laerm;62048;52.312;4.858;2022-08-21T00:04:07;40.60;37.72;44.14;;
71026;Laerm;62048;52.312;4.858;2022-08-21T00:04:18;42.19;39.32;47.20;;
71026;Laerm;62048;52.312;4.858;2022-08-21T00:04:28;43.47;39.74;48.56;;
71026;Laerm;62048;52.312;4.858;2022-08-21T00:04:39;44.13;40.86;48.02;;
71026;Laerm;62048;52.312;4.858;2022-08-21T00:04:49;43.19;40.28;46.76;;
71026;Laerm;62048;52.312;4.858;2022-08-21T00:05:00;44.33;41.04;47.03;;
71026;Laerm;62048;52.312;4.858;2022-08-21T00:05:11;44.31;40.45;47.86;;
71026;Laerm;62048;52.312;4.858;2022-08-21T00:05:22;44.47;41.16;48.53;;
71026;Laerm;62048;52.312;4.858;2022-08-21T00:05:35;44.45;40.17;54.90;;
71026;Laerm;62048;52.312;4.858;2022-08-21T00:05:47;43.90;39.93;48.72;;
71026;Laerm;62048;52.312;4.858;2022-08-21T00:05:57;43.68;39.72;47.41;;
71026;Laerm;62048;52.312;4.858;2022-08-21T00:06:08;43.68;40.20;48.55;;
71026;Laerm;62048;52.312;4.858;2022-08-21T00:06:18;43.72;40.98;47.09;;
71026;Laerm;62048;52.312;4.858;2022-08-21T00:06:29;44.01;40.94;48.19;;
71026;Laerm;62048;52.312;4.858;2022-08-21T00:06:39;43.39;39.37;50.59;;
71026;Laerm;62048;52.312;4.858;2022-08-21T00:06:50;42.39;39.30;46.12;;
71026;Laerm;62048;52.312;4.858;2022-08-21T00:07:01;44.85;40.30;48.73;;
71026;Laerm;62048;52.312;4.858;2022-08-21T00:07:12;44.35;41.29;49.70;;
71026;Laerm;62048;52.312;4.858;2022-08-21T00:07:22;45.78;42.61;49.06;;
71026;Laerm;62048;52.312;4.858;2022-08-21T00:07:32;46.36;43.26;48.81;;
71026;Laerm;62048;52.312;4.858;2022-08-21T00:07:43;47.26;44.59;53.51;;
71026;Laerm;62048;52.312;4.858;2022-08-21T00:07:54;46.23;42.91;56.12;;
71026;Laerm;62048;52.312;4.858;2022-08-21T00:08:05;45.38;42.80;48.43;;
71026;Laerm;62048;52.312;4.858;2022-08-21T00:08:16;44.05;41.08;46.94;;
71026;Laerm;62048;52.312;4.858;2022-08-21T00:08:27;44.32;41.33;47.23;;
71026;Laerm;62048;52.312;4.858;2022-08-21T00:08:37;45.02;41.68;49.70;;
71026;Laerm;62048;52.312;4.858;2022-08-21T00:08:48;46.02;42.50;48.23;;
71026;Laerm;62048;52.312;4.858;2022-08-21T00:08:58;45.65;41.62;48.87;;
71026;Laerm;62048;52.312;4.858;2022-08-21T00:09:09;44.10;40.25;47.23;;
71026;Laerm;62048;52.312;4.858;2022-08-21T00:09:19;42.88;39.40;45.85;;
71026;Laerm;62048;52.312;4.858;2022-08-21T00:09:30;42.91;38.99;47.98;;
71026;Laerm;62048;52.312;4.858;2022-08-21T00:09:40;45.23;39.63;56.11;;
71026;Laerm;62048;52.312;4.858;2022-08-21T00:09:51;41.67;38.26;44.32;;
71026;Laerm;62048;52.312;4.858;2022-08-21T00:10:02;42.96;38.72;48.39;;
71026;Laerm;62048;52.312;4.858;2022-08-21T00:10:12;42.09;37.77;46.44;;
71026;Laerm;62048;52.312;4.858;2022-08-21T00:10:24;43.31;39.63;46.44;;
71026;Laerm;62048;52.312;4.858;2022-08-21T00:10:34;43.04;39.71;50.08;;
71026;Laerm;62048;52.312;4.858;2022-08-21T00:10:45;44.22;40.46;50.50;;
71026;Laerm;62048;52.312;4.858;2022-08-21T00:10:56;46.00;42.39;50.08;;
71026;Laerm;62048;52.312;4.858;2022-08-21T00:11:06;45.50;42.10;49.11;;
71026;Laerm;62048;52.312;4.858;2022-08-21T00:11:17;44.81;41.34;49.47;;
71026;Laerm;62048;52.312;4.858;2022-08-21T00:11:28;43.51;39.69;47.43;;
71026;Laerm;62048;52.312;4.858;2022-08-21T00:11:38;42.73;39.09;45.46;;
71026;Laerm;62048;52.312;4.858;2022-08-21T00:11:49;43.34;40.78;46.22;;
71026;Laerm;62048;52.312;4.858;2022-08-21T00:11:59;43.34;39.93;46.17;;
71026;Laerm;62048;52.312;4.858;2022-08-21T00:12:09;42.40;38.50;45.14;;
71026;Laerm;62048;52.312;4.858;2022-08-21T00:12:20;43.11;39.62;46.28;;
71026;Laerm;62048;52.312;4.858;2022-08-21T00:12:30;42.44;39.14;48.84;;
71026;Laerm;62048;52.312;4.858;2022-08-21T00:12:41;43.26;39.34;48.63;;
71026;Laerm;62048;52.312;4.858;2022-08-21T00:12:53;42.80;39.72;46.79;;
71026;Laerm;62048;52.312;4.858;2022-08-21T00:13:04;41.86;39.07;46.68;;
71026;Laerm;62048;52.312;4.858;2022-08-21T00:13:15;42.72;39.49;46.23;;
71026;Laerm;62048;52.312;4.858;2022-08-21T00:13:26;43.05;38.63;47.26;;
71026;Laerm;62048;52.312;4.858;2022-08-21T00:13:36;41.66;38.75;46.27;;
71026;Laerm;62048;52.312;4.858;2022-08-21T00:13:47;42.65;39.05;45.96;;
71026;Laerm;62048;52.312;4.858;2022-08-21T00:13:57;44.42;40.78;47.51;;
71026;Laerm;62048;52.312;4.858;2022-08-21T00:14:08;46.27;42.76;49.72;;
71026;Laerm;62048;52.312;4.858;2022-08-21T00:14:18;46.70;42.55;52.66;;
71026;Laerm;62048;52.312;4.858;2022-08-21T00:14:29;44.84;42.36;47.12;;
71026;Laerm;62048;52.312;4.858;2022-08-21T00:14:39;44.87;41.79;47.76;;
71026;Laerm;62048;52.312;4.858;2022-08-21T00:14:49;45.55;41.60;49.22;;
71026;Laerm;62048;52.312;4.858;2022-08-21T00:15:00;45.33;41.08;48.02;;
71026;Laerm;62048;52.312;4.858;2022-08-21T00:15:11;46.90;43.48;50.60;;
71026;Laerm;62048;52.312;4.858;2022-08-21T00:15:23;46.88;43.26;50.87;;
71026;Laerm;62048;52.312;4.858;2022-08-21T00:15:36;46.49;41.99;52.32;;
71026;Laerm;62048;52.312;4.858;2022-08-21T00:15:47;45.89;41.66;48.67;;
71026;Laerm;62048;52.312;4.858;2022-08-21T00:15:58;46.29;41.95;50.76;;
71026;Laerm;62048;52.312;4.858;2022-08-21T00:16:08;45.29;40.51;49.06;;
71026;Laerm;62048;52.312;4.858;2022-08-21T00:16:19;43.43;40.79;47.13;;
71026;Laerm;62048;52.312;4.858;2022-08-21T00:16:29;43.69;40.97;49.77;;
71026;Laerm;62048;52.312;4.858;2022-08-21T00:16:40;42.79;39.82;47.70;;
71026;Laerm;62048;52.312;4.858;2022-08-21T00:16:50;42.58;39.39;48.32;;
71026;Laerm;62048;52.312;4.858;2022-08-21T00:17:01;42.51;39.35;45.73;;
71026;Laerm;62048;52.312;4.858;2022-08-21T00:17:12;43.54;39.92;49.02;;
71026;Laerm;62048;52.312;4.858;2022-08-21T00:17:22;42.70;37.60;45.94;;
71026;Laerm;62048;52.312;4.858;2022-08-21T00:17:33;42.18;39.01;46.54;;
71026;Laerm;62048;52.312;4.858;2022-08-21T00:17:43;43.40;40.63;46.84;;
71026;Laerm;62048;52.312;4.858;2022-08-21T00:17:54;43.63;41.11;46.44;;
71026;Laerm;62048;52.312;4.858;2022-08-21T00:18:05;43.57;40.60;51.20;;
71026;Laerm;62048;52.312;4.858;2022-08-21T00:18:17;42.53;39.53;45.23;;
71026;Laerm;62048;52.312;4.858;2022-08-21T00:18:27;42.95;39.89;47.20;;
71026;Laerm;62048;52.312;4.858;2022-08-21T00:18:37;43.93;40.45;47.32;;
71026;Laerm;62048;52.312;4.858;2022-08-21T00:18:48;42.42;39.75;45.93;;
71026;Laerm;62048;52.312;4.858;2022-08-21T00:18:58;42.92;39.91;45.91;;
71026;Laerm;62048;52.312;4.858;2022-08-21T00:19:09;42.03;39.45;46.92;;
71026;Laerm;62048;52.312;4.858;2022-08-21T00:19:19;43.47;40.53;49.31;;
71026;Laerm;62048;52.312;4.858;2022-08-21T00:19:34;43.39;39.75;46.86;;
71026;Laerm;62048;52.312;4.858;2022-08-21T00:19:44;43.30;40.13;47.41;;
71026;Laerm;62048;52.312;4.858;2022-08-21T00:19:54;44.73;41.13;49.95;;
71026;Laerm;62048;52.312;4.858;2022-08-21T00:20:06;44.15;40.72;48.32;;
71026;Laerm;62048;52.312;4.858;2022-08-21T00:20:18;43.59;40.55;47.55;;
71026;Laerm;62048;52.312;4.858;2022-08-21T00:20:30;44.97;40.90;48.29;;
71026;Laerm;62048;52.312;4.858;2022-08-21T00:20:41;43.84;40.12;46.57;;
71026;Laerm;62048;52.312;4.858;2022-08-21T00:20:52;44.08;40.48;47.97;;
71026;Laerm;62048;52.312;4.858;2022-08-21T00:21:03;45.31;41.54;49.43;;
71026;Laerm;62048;52.312;4.858;2022-08-21T00:21:13;44.26;40.65;49.34;;
71026;Laerm;62048;52.312;4.858;2022-08-21T00:21:24;44.80;41.67;48.15;;
71026;Laerm;62048;52.312;4.858;2022-08-21T00:21:35;45.44;42.46;49.61;;
71026;Laerm;62048;52.312;4.858;2022-08-21T00:21:46;45.16;42.51;50.88;;
71026;Laerm;62048;52.312;4.858;2022-08-21T00:21:56;44.17;40.32;47.51;;
71026;Laerm;62048;52.312;4.858;2022-08-21T00:22:06;44.39;41.45;47.41;;
71026;Laerm;62048;52.312;4.858;2022-08-21T00:22:17;44.06;40.48;48.02;;
71026;Laerm;62048;52.312;4.858;2022-08-21T00:22:27;42.48;39.31;45.40;;
71026;Laerm;62048;52.312;4.858;2022-08-21T00:22:39;43.52;39.53;48.29;;
71026;Laerm;62048;52.312;4.858;2022-08-21T00:22:49;45.87;42.30;50.88;;
71026;Laerm;62048;52.312;4.858;2022-08-21T00:23:00;45.22;41.06;50.39;;
71026;Laerm;62048;52.312;4.858;2022-08-21T00:23:10;45.61;42.27;50.09;;
71026;Laerm;62048;52.312;4.858;2022-08-21T00:23:21;46.15;43.43;48.61;;
71026;Laerm;62048;52.312;4.858;2022-08-21T00:23:33;45.91;42.41;49.13;;
71026;Laerm;62048;52.312;4.858;2022-08-21T00:23:44;44.86;41.92;47.78;;
71026;Laerm;62048;52.312;4.858;2022-08-21T00:23:54;44.89;42.12;48.02;;
71026;Laerm;62048;52.312;4.858;2022-08-21T00:24:05;43.86;40.56;47.30;;
71026;Laerm;62048;52.312;4.858;2022-08-21T00:24:15;44.26;40.92;49.48;;
71026;Laerm;62048;52.312;4.858;2022-08-21T00:24:26;42.63;39.22;47.52;;
71026;Laerm;62048;52.312;4.858;2022-08-21T00:24:36;42.83;39.30;52.38;;
71026;Laerm;62048;52.312;4.858;2022-08-21T00:24:47;43.58;38.66;48.89;;
71026;Laerm;62048;52.312;4.858;2022-08-21T00:24:57;45.05;40.61;50.14;;
71026;Laerm;62048;52.312;4.858;2022-08-21T00:25:08;43.48;40.35;46.46;;
71026;Laerm;62048;52.312;4.858;2022-08-21T00:25:19;43.02;39.39;46.98;;
71026;Laerm;62048;52.312;4.858;2022-08-21T00:25:30;42.28;39.13;45.28;;
71026;Laerm;62048;52.312;4.858;2022-08-21T00:25:41;42.17;38.31;46.21;;
71026;Laerm;62048;52.312;4.858;2022-08-21T00:25:52;44.53;39.61;48.26;;
71026;Laerm;62048;52.312;4.858;2022-08-21T00:26:03;48.53;44.32;52.78;;
71026;Laerm;62048;52.312;4.858;2022-08-21T00:26:13;49.95;46.49;53.37;;
71026;Laerm;62048;52.312;4.858;2022-08-21T00:26:24;49.20;44.02;54.12;;
71026;Laerm;62048;52.312;4.858;2022-08-21T00:26:34;47.83;44.27;52.79;;
71026;Laerm;62048;52.312;4.858;2022-08-21T00:26:44;46.30;43.75;49.66;;
71026;Laerm;62048;52.312;4.858;2022-08-21T00:26:55;45.92;41.81;49.49;;
71026;Laerm;62048;52.312;4.858;2022-08-21T00:27:05;44.62;40.61;48.08;;
71026;Laerm;62048;52.312;4.858;2022-08-21T00:27:16;43.56;40.07;46.59;;
71026;Laerm;62048;52.312;4.858;2022-08-21T00:27:26;45.03;41.25;49.60;;
71026;Laerm;62048;52.312;4.858;2022-08-21T00:27:37;44.68;41.34;49.47;;
71026;Laerm;62048;52.312;4.858;2022-08-21T00:27:47;44.72;41.69;48.24;;
71026;Laerm;62048;52.312;4.858;2022-08-21T00:27:58;45.16;40.90;49.43;;
71026;Laerm;62048;52.312;4.858;2022-08-21T00:28:08;43.05;39.68;46.02;;
71026;Laerm;62048;52.312;4.858;2022-08-21T00:28:19;43.98;40.81;48.99;;
71026;Laerm;62048;52.312;4.858;2022-08-21T00:28:29;44.88;41.40;48.70;;
71026;Laerm;62048;52.312;4.858;2022-08-21T00:28:39;45.27;41.34;48.58;;
71026;Laerm;62048;52.312;4.858;2022-08-21T00:28:50;43.58;40.33;46.82;;
71026;Laerm;62048;52.312;4.858;2022-08-21T00:29:00;45.81;41.82;49.22;;
71026;Laerm;62048;52.312;4.858;2022-08-21T00:29:11;48.62;44.44;52.67;;
71026;Laerm;62048;52.312;4.858;2022-08-21T00:29:21;48.49;43.46;53.97;;
71026;Laerm;62048;52.312;4.858;2022-08-21T00:29:31;43.13;40.24;46.37;;
71026;Laerm;62048;52.312;4.858;2022-08-21T00:29:42;42.35;40.07;45.00;;
71026;Laerm;62048;52.312;4.858;2022-08-21T00:29:52;42.31;39.87;45.53;;
71026;Laerm;62048;52.312;4.858;2022-08-21T00:30:05;43.33;40.33;46.82;;
71026;Laerm;62048;52.312;4.858;2022-08-21T00:30:16;43.98;40.88;49.43;;
71026;Laerm;62048;52.312;4.858;2022-08-21T00:30:28;43.75;40.47;51.57;;
71026;Laerm;62048;52.312;4.858;2022-08-21T00:30:39;43.12;40.16;46.77;;
71026;Laerm;62048;52.312;4.858;2022-08-21T00:30:49;42.97;39.72;47.86;;
71026;Laerm;62048;52.312;4.858;2022-08-21T00:31:00;45.30;41.54;50.58;;
71026;Laerm;62048;52.312;4.858;2022-08-21T00:31:13;45.92;42.03;50.49;;
71026;Laerm;62048;52.312;4.858;2022-08-21T00:31:24;43.03;40.00;45.86;;
71026;Laerm;62048;52.312;4.858;2022-08-21T00:31:34;43.93;40.82;47.45;;
71026;Laerm;62048;52.312;4.858;2022-08-21T00:31:45;43.64;39.79;47.53;;
71026;Laerm;62048;52.312;4.858;2022-08-21T00:31:55;42.89;40.03;45.66;;
71026;Laerm;62048;52.312;4.858;2022-08-21T00:32:05;42.73;37.61;51.69;;
71026;Laerm;62048;52.312;4.858;2022-08-21T00:32:20;42.21;37.55;48.19;;
71026;Laerm;62048;52.312;4.858;2022-08-21T00:32:31;42.23;39.16;47.27;;
71026;Laerm;62048;52.312;4.858;2022-08-21T00:32:41;43.19;40.03;47.71;;
71026;Laerm;62048;52.312;4.858;2022-08-21T00:32:52;43.54;37.83;50.86;;
71026;Laerm;62048;52.312;4.858;2022-08-21T00:33:03;43.18;38.21;49.03;;
71026;Laerm;62048;52.312;4.858;2022-08-21T00:33:14;41.77;36.91;50.13;;
71026;Laerm;62048;52.312;4.858;2022-08-21T00:33:24;40.40;36.41;44.11;;
71026;Laerm;62048;52.312;4.858;2022-08-21T00:33:35;41.53;38.65;46.11;;
71026;Laerm;62048;52.312;4.858;2022-08-21T00:33:45;44.43;40.74;47.18;;
71026;Laerm;62048;52.312;4.858;2022-08-21T00:33:56;46.22;42.61;49.35;;
71026;Laerm;62048;52.312;4.858;2022-08-21T00:34:06;44.86;41.31;49.31;;
71026;Laerm;62048;52.312;4.858;2022-08-21T00:34:17;44.45;41.27;48.60;;
71026;Laerm;62048;52.312;4.858;2022-08-21T00:34:27;44.13;40.82;47.64;;
71026;Laerm;62048;52.312;4.858;2022-08-21T00:34:38;41.63;38.60;46.05;;
71026;Laerm;62048;52.312;4.858;2022-08-21T00:34:48;43.46;39.22;49.66;;
71026;Laerm;62048;52.312;4.858;2022-08-21T00:34:59;46.74;42.87;50.83;;
71026;Laerm;62048;52.312;4.858;2022-08-21T00:35:10;43.14;38.97;48.35;;
71026;Laerm;62048;52.312;4.858;2022-08-21T00:35:27;42.93;39.57;47.84;;
71026;Laerm;62048;52.312;4.858;2022-08-21T00:35:38;43.85;40.00;48.67;;
71026;Laerm;62048;52.312;4.858;2022-08-21T00:35:49;43.86;40.90;47.46;;
71026;Laerm;62048;52.312;4.858;2022-08-21T00:36:03;44.89;41.70;47.75;;
71026;Laerm;62048;52.312;4.858;2022-08-21T00:36:13;44.17;41.36;48.56;;
71026;Laerm;62048;52.312;4.858;2022-08-21T00:36:24;44.09;40.23;48.89;;
71026;Laerm;62048;52.312;4.858;2022-08-21T00:36:34;44.58;41.39;48.82;;
71026;Laerm;62048;52.312;4.858;2022-08-21T00:36:45;43.51;40.54;47.29;;
71026;Laerm;62048;52.312;4.858;2022-08-21T00:36:55;42.13;39.21;44.66;;
71026;Laerm;62048;52.312;4.858;2022-08-21T00:37:05;41.80;38.43;46.34;;
71026;Laerm;62048;52.312;4.858;2022-08-21T00:37:18;41.79;38.34;46.62;;
71026;Laerm;62048;52.312;4.858;2022-08-21T00:37:28;42.68;39.66;46.99;;
71026;Laerm;62048;52.312;4.858;2022-08-21T00:37:39;42.21;39.30;46.35;;
71026;Laerm;62048;52.312;4.858;2022-08-21T00:37:49;42.67;38.49;47.67;;
71026;Laerm;62048;52.312;4.858;2022-08-21T00:38:00;41.98;38.92;45.69;;
71026;Laerm;62048;52.312;4.858;2022-08-21T00:38:10;41.41;38.72;44.12;;
71026;Laerm;62048;52.312;4.858;2022-08-21T00:38:21;45.09;40.81;49.01;;
71026;Laerm;62048;52.312;4.858;2022-08-21T00:38:31;43.27;39.48;46.54;;
71026;Laerm;62048;52.312;4.858;2022-08-21T00:38:41;41.25;38.71;45.87;;
71026;Laerm;62048;52.312;4.858;2022-08-21T00:38:52;41.45;38.69;46.39;;
71026;Laerm;62048;52.312;4.858;2022-08-21T00:39:05;41.82;37.78;46.58;;
71026;Laerm;62048;52.312;4.858;2022-08-21T00:39:16;41.91;38.06;46.86;;
71026;Laerm;62048;52.312;4.858;2022-08-21T00:39:26;43.30;39.28;46.82;;
71026;Laerm;62048;52.312;4.858;2022-08-21T00:39:37;43.07;39.80;47.46;;
71026;Laerm;62048;52.312;4.858;2022-08-21T00:39:47;41.72;38.82;44.49;;
71026;Laerm;62048;52.312;4.858;2022-08-21T00:39:58;42.89;39.24;46.05;;
71026;Laerm;62048;52.312;4.858;2022-08-21T00:40:11;43.92;41.03;46.96;;
71026;Laerm;62048;52.312;4.858;2022-08-21T00:40:24;42.13;39.32;45.59;;
71026;Laerm;62048;52.312;4.858;2022-08-21T00:40:37;42.74;39.05;46.63;;
71026;Laerm;62048;52.312;4.858;2022-08-21T00:40:49;43.51;40.37;47.64;;
71026;Laerm;62048;52.312;4.858;2022-08-21T00:41:01;43.37;39.82;47.90;;
71026;Laerm;62048;52.312;4.858;2022-08-21T00:41:11;44.93;41.75;50.43;;
71026;Laerm;62048;52.312;4.858;2022-08-21T00:41:22;44.16;41.43;47.13;;
71026;Laerm;62048;52.312;4.858;2022-08-21T00:41:34;44.07;40.86;48.26;;
71026;Laerm;62048;52.312;4.858;2022-08-21T00:41:45;43.99;40.97;47.64;;
71026;Laerm;62048;52.312;4.858;2022-08-21T00:41:55;45.40;42.37;48.93;;
71026;Laerm;62048;52.312;4.858;2022-08-21T00:42:06;44.93;41.76;47.88;;
71026;Laerm;62048;52.312;4.858;2022-08-21T00:42:16;44.32;41.53;47.38;;
71026;Laerm;62048;52.312;4.858;2022-08-21T00:42:28;45.13;41.32;49.74;;
71026;Laerm;62048;52.312;4.858;2022-08-21T00:42:39;46.10;42.01;50.35;;
71026;Laerm;62048;52.312;4.858;2022-08-21T00:42:49;47.68;43.83;54.25;;
71026;Laerm;62048;52.312;4.858;2022-08-21T00:43:01;45.56;42.84;49.31;;
71026;Laerm;62048;52.312;4.858;2022-08-21T00:43:13;42.35;38.72;45.97;;
71026;Laerm;62048;52.312;4.858;2022-08-21T00:43:27;40.76;38.15;47.28;;
71026;Laerm;62048;52.312;4.858;2022-08-21T00:43:39;41.34;37.29;47.99;;
71026;Laerm;62048;52.312;4.858;2022-08-21T00:43:49;42.10;37.50;48.52;;
71026;Laerm;62048;52.312;4.858;2022-08-21T00:44:01;43.71;40.39;48.49;;
71026;Laerm;62048;52.312;4.858;2022-08-21T00:44:14;45.02;42.35;48.28;;
71026;Laerm;62048;52.312;4.858;2022-08-21T00:44:25;44.48;41.15;47.79;;
71026;Laerm;62048;52.312;4.858;2022-08-21T00:44:35;44.78;42.44;49.65;;
71026;Laerm;62048;52.312;4.858;2022-08-21T00:44:46;45.28;42.63;49.17;;
71026;Laerm;62048;52.312;4.858;2022-08-21T00:44:57;44.35;41.56;47.73;;
71026;Laerm;62048;52.312;4.858;2022-08-21T00:45:08;43.73;40.58;47.32;;
71026;Laerm;62048;52.312;4.858;2022-08-21T00:45:20;43.55;40.74;46.52;;
71026;Laerm;62048;52.312;4.858;2022-08-21T00:45:30;43.67;40.56;48.14;;
71026;Laerm;62048;52.312;4.858;2022-08-21T00:45:41;47.36;41.92;51.64;;
71026;Laerm;62048;52.312;4.858;2022-08-21T00:45:52;45.71;41.46;51.09;;
71026;Laerm;62048;52.312;4.858;2022-08-21T00:46:03;44.11;40.14;46.96;;
71026;Laerm;62048;52.312;4.858;2022-08-21T00:46:14;45.13;42.13;48.25;;
71026;Laerm;62048;52.312;4.858;2022-08-21T00:46:24;43.00;40.45;46.21;;
71026;Laerm;62048;52.312;4.858;2022-08-21T00:46:35;41.97;38.46;46.77;;
71026;Laerm;62048;52.312;4.858;2022-08-21T00:46:46;42.20;39.47;47.47;;
71026;Laerm;62048;52.312;4.858;2022-08-21T00:46:56;40.81;37.60;43.47;;
71026;Laerm;62048;52.312;4.858;2022-08-21T00:47:07;42.32;39.17;45.76;;
71026;Laerm;62048;52.312;4.858;2022-08-21T00:47:18;42.67;40.28;47.88;;
71026;Laerm;62048;52.312;4.858;2022-08-21T00:47:28;41.91;39.09;45.74;;
71026;Laerm;62048;52.312;4.858;2022-08-21T00:47:39;40.79;37.36;45.03;;
71026;Laerm;62048;52.312;4.858;2022-08-21T00:47:49;42.76;39.64;49.31;;
71026;Laerm;62048;52.312;4.858;2022-08-21T00:48:00;42.77;39.40;47.97;;
71026;Laerm;62048;52.312;4.858;2022-08-21T00:48:11;44.30;41.32;48.77;;
71026;Laerm;62048;52.312;4.858;2022-08-21T00:48:21;42.55;40.23;45.54;;
71026;Laerm;62048;52.312;4.858;2022-08-21T00:48:32;42.75;39.87;46.31;;
71026;Laerm;62048;52.312;4.858;2022-08-21T00:48:42;43.61;39.92;50.15;;
71026;Laerm;62048;52.312;4.858;2022-08-21T00:48:53;46.24;41.53;51.02;;
71026;Laerm;62048;52.312;4.858;2022-08-21T00:49:04;43.03;39.63;46.22;;
71026;Laerm;62048;52.312;4.858;2022-08-21T00:49:16;41.64;38.05;44.56;;
71026;Laerm;62048;52.312;4.858;2022-08-21T00:49:27;40.96;38.27;43.99;;
71026;Laerm;62048;52.312;4.858;2022-08-21T00:49:38;41.57;37.39;44.69;;
71026;Laerm;62048;52.312;4.858;2022-08-21T00:49:49;41.02;38.38;43.85;;
71026;Laerm;62048;52.312;4.858;2022-08-21T00:49:59;40.47;37.22;45.50;;
71026;Laerm;62048;52.312;4.858;2022-08-21T00:50:10;41.55;38.37;47.92;;
71026;Laerm;62048;52.312;4.858;2022-08-21T00:50:22;40.26;37.53;44.25;;
71026;Laerm;62048;52.312;4.858;2022-08-21T00:50:35;41.95;38.76;44.93;;
71026;Laerm;62048;52.312;4.858;2022-08-21T00:50:47;42.45;37.30;46.70;;
71026;Laerm;62048;52.312;4.858;2022-08-21T00:51:09;42.75;38.81;47.93;;
71026;Laerm;62048;52.312;4.858;2022-08-21T00:51:21;41.73;37.54;46.39;;
71026;Laerm;62048;52.312;4.858;2022-08-21T00:51:47;40.87;37.98;44.39;;
71026;Laerm;62048;52.312;4.858;2022-08-21T00:51:59;42.68;39.23;47.39;;
71026;Laerm;62048;52.312;4.858;2022-08-21T00:52:14;42.84;39.43;50.09;;
71026;Laerm;62048;52.312;4.858;2022-08-21T00:52:27;43.28;39.75;47.15;;
71026;Laerm;62048;52.312;4.858;2022-08-21T00:52:38;44.76;40.89;47.70;;
71026;Laerm;62048;52.312;4.858;2022-08-21T00:52:50;44.06;40.72;47.09;;
71026;Laerm;62048;52.312;4.858;2022-08-21T00:53:01;44.22;41.07;47.26;;
71026;Laerm;62048;52.312;4.858;2022-08-21T00:53:12;43.71;41.20;46.53;;
71026;Laerm;62048;52.312;4.858;2022-08-21T00:53:23;42.21;39.86;47.28;;
71026;Laerm;62048;52.312;4.858;2022-08-21T00:53:36;41.50;37.18;45.78;;
71026;Laerm;62048;52.312;4.858;2022-08-21T00:53:47;41.20;38.54;44.77;;
71026;Laerm;62048;52.312;4.858;2022-08-21T00:54:00;41.14;38.09;44.30;;
71026;Laerm;62048;52.312;4.858;2022-08-21T00:54:11;42.92;39.71;48.69;;
71026;Laerm;62048;52.312;4.858;2022-08-21T00:54:22;42.55;38.92;47.28;;
71026;Laerm;62048;52.312;4.858;2022-08-21T00:54:34;40.94;37.35;45.76;;
71026;Laerm;62048;52.312;4.858;2022-08-21T00:54:45;41.00;37.63;46.45;;
71026;Laerm;62048;52.312;4.858;2022-08-21T00:54:56;41.89;38.27;45.51;;
71026;Laerm;62048;52.312;4.858;2022-08-21T00:55:08;39.87;37.63;42.98;;
71026;Laerm;62048;52.312;4.858;2022-08-21T00:55:20;41.08;37.79;47.92;;
71026;Laerm;62048;52.312;4.858;2022-08-21T00:55:32;39.96;37.42;43.33;;
71026;Laerm;62048;52.312;4.858;2022-08-21T00:55:42;41.92;38.59;45.65;;
71026;Laerm;62048;52.312;4.858;2022-08-21T00:55:53;45.14;39.82;51.66;;
71026;Laerm;62048;52.312;4.858;2022-08-21T00:56:04;41.12;38.27;45.09;;
71026;Laerm;62048;52.312;4.858;2022-08-21T00:56:15;41.44;38.83;44.99;;
71026;Laerm;62048;52.312;4.858;2022-08-21T00:56:25;42.37;38.99;45.75;;
71026;Laerm;62048;52.312;4.858;2022-08-21T00:56:36;43.00;39.68;48.41;;
71026;Laerm;62048;52.312;4.858;2022-08-21T00:56:48;41.59;38.65;44.70;;
71026;Laerm;62048;52.312;4.858;2022-08-21T00:57:00;40.97;38.47;43.97;;
71026;Laerm;62048;52.312;4.858;2022-08-21T00:57:24;41.98;39.87;44.36;;
71026;Laerm;62048;52.312;4.858;2022-08-21T00:57:38;42.53;39.05;47.01;;
71026;Laerm;62048;52.312;4.858;2022-08-21T00:57:50;42.22;38.57;47.13;;
71026;Laerm;62048;52.312;4.858;2022-08-21T00:58:02;41.65;39.24;45.18;;
71026;Laerm;62048;52.312;4.858;2022-08-21T00:58:14;42.03;38.82;45.79;;
71026;Laerm;62048;52.312;4.858;2022-08-21T00:58:26;40.78;37.71;43.44;;
71026;Laerm;62048;52.312;4.858;2022-08-21T00:58:37;40.73;37.52;44.05;;
71026;Laerm;62048;52.312;4.858;2022-08-21T00:58:49;39.56;36.77;42.02;;
71026;Laerm;62048;52.312;4.858;2022-08-21T00:58:59;39.89;37.15;43.66;;
71026;Laerm;62048;52.312;4.858;2022-08-21T00:59:11;40.65;38.04;43.89;;
71026;Laerm;62048;52.312;4.858;2022-08-21T00:59:22;42.29;37.86;45.34;;
71026;Laerm;62048;52.312;4.858;2022-08-21T00:59:34;43.10;39.86;46.01;;
71026;Laerm;62048;52.312;4.858;2022-08-21T00:59:47;43.52;40.35;47.74;;
71026;Laerm;62048;52.312;4.858;2022-08-21T00:59:59;44.14;39.28;48.94;;
71026;Laerm;62048;52.312;4.858;2022-08-21T01:00:13;41.22;38.40;44.23;;
71026;Laerm;62048;52.312;4.858;2022-08-21T01:00:26;41.36;38.71;43.93;;
71026;Laerm;62048;52.312;4.858;2022-08-21T01:00:39;43.54;39.37;49.87;;
71026;Laerm;62048;52.312;4.858;2022-08-21T01:00:50;43.79;40.12;47.61;;
71026;Laerm;62048;52.312;4.858;2022-08-21T01:01:02;43.13;40.72;47.04;;
71026;Laerm;62048;52.312;4.858;2022-08-21T01:01:12;43.00;39.24;47.72;;
71026;Laerm;62048;52.312;4.858;2022-08-21T01:01:23;42.35;39.76;45.43;;
71026;Laerm;62048;52.312;4.858;2022-08-21T01:01:33;40.42;37.42;43.17;;
71026;Laerm;62048;52.312;4.858;2022-08-21T01:01:44;39.94;36.95;41.82;;
71026;Laerm;62048;52.312;4.858;2022-08-21T01:01:55;41.28;37.68;46.16;;
71026;Laerm;62048;52.312;4.858;2022-08-21T01:02:06;40.60;37.97;43.47;;
71026;Laerm;62048;52.312;4.858;2022-08-21T01:02:17;41.34;38.12;44.85;;
71026;Laerm;62048;52.312;4.858;2022-08-21T01:02:28;42.98;39.39;47.97;;
71026;Laerm;62048;52.312;4.858;2022-08-21T01:02:38;43.32;39.42;50.53;;